Time;durP1;ratioP1;P1;durP2;ratioP2;P2;SDS_P1;SDS_P2;PMS_P1;PMS_P2;Temp;Humidity;BMP_temperature;BMP_pressure;BME280_temperature;BME280_humidity;BME280_pressure;Samples;Min_cycle;Max_cycle;Signal;HPM_P1;HPM_P2
2021/03/09 00:00:13;;;;;;;13.55;8.15;;;2.90;82.20;;;;;;5103894;28;20086;-84
2021/03/09 00:02:41;;;;;;;13.50;8.23;;;2.90;82.90;;;;;;5102162;28;20439;-82
2021/03/09 00:05:10;;;;;;;14.80;7.63;;;3.00;82.20;;;;;;5073697;28;20075;-82
2021/03/09 00:07:37;;;;;;;11.63;7.13;;;2.90;82.20;;;;;;5088565;28;20119;-81
2021/03/09 00:10:06;;;;;;;12.88;7.85;;;2.80;83.60;;;;;;5072782;28;20135;-82
2021/03/09 00:12:33;;;;;;;14.95;8.82;;;2.80;83.50;;;;;;5071713;28;20090;-83
2021/03/09 00:14:59;;;;;;;14.68;7.82;;;2.80;84.40;;;;;;5073487;28;20140;-83
2021/03/09 00:17:26;;;;;;;13.18;7.82;;;2.80;85.20;;;;;;5072811;28;20086;-81
2021/03/09 00:19:53;;;;;;;14.10;8.02;;;2.80;85.20;;;;;;5072374;28;20107;-83
2021/03/09 00:22:20;;;;;;;13.88;7.15;;;2.80;85.70;;;;;;5088295;28;20055;-83
2021/03/09 00:24:47;;;;;;;13.85;7.97;;;2.80;86.40;;;;;;5072607;28;20068;-84
2021/03/09 00:27:13;;;;;;;12.00;7.47;;;2.70;86.70;;;;;;5085700;28;20376;-85
2021/03/09 00:29:40;;;;;;;12.35;6.85;;;2.80;86.50;;;;;;5087847;28;20044;-83
2021/03/09 00:32:09;;;;;;;12.80;7.65;;;2.80;86.80;;;;;;5072884;28;20627;-83
2021/03/09 00:34:36;;;;;;;16.70;7.38;;;2.80;86.70;;;;;;5092083;28;20083;-83
2021/03/09 00:37:04;;;;;;;13.13;7.47;;;2.90;87.20;;;;;;5072639;28;20131;-84
2021/03/09 00:39:32;;;;;;;12.00;7.10;;;2.90;86.10;;;;;;5091559;28;20044;-84
2021/03/09 00:41:59;;;;;;;12.50;7.05;;;2.90;85.60;;;;;;5086305;28;20131;-83
2021/03/09 00:44:26;;;;;;;14.95;7.90;;;2.90;85.50;;;;;;5072315;28;20241;-83
2021/03/09 00:46:53;;;;;;;13.00;7.05;;;2.70;85.90;;;;;;5088038;28;20139;-82
2021/03/09 00:49:20;;;;;;;12.20;7.82;;;2.90;86.20;;;;;;5089317;28;20132;-83
2021/03/09 00:51:47;;;;;;;12.57;7.22;;;2.80;85.30;;;;;;5107970;28;20078;-83
2021/03/09 00:54:13;;;;;;;12.50;7.38;;;2.80;86.60;;;;;;5092186;28;20054;-83
2021/03/09 00:56:41;;;;;;;11.18;6.85;;;2.70;86.90;;;;;;5108476;28;20194;-83
2021/03/09 00:59:08;;;;;;;11.88;7.07;;;2.70;86.70;;;;;;5090825;28;20058;-83
2021/03/09 01:01:35;;;;;;;11.52;6.95;;;2.70;86.70;;;;;;5083020;28;20420;-81
2021/03/09 01:04:01;;;;;;;12.40;7.00;;;2.70;86.20;;;;;;5054408;28;20136;-84
2021/03/09 01:06:28;;;;;;;10.65;6.63;;;2.70;86.60;;;;;;5072015;28;20416;-83
2021/03/09 01:08:54;;;;;;;11.35;6.88;;;2.70;87.00;;;;;;5099670;28;20040;-81
2021/03/09 01:11:21;;;;;;;12.15;7.25;;;2.70;86.40;;;;;;5092424;28;20083;-84
2021/03/09 01:13:48;;;;;;;11.90;7.15;;;2.60;85.90;;;;;;5092167;28;20130;-83
2021/03/09 01:16:15;;;;;;;13.07;7.88;;;2.60;86.80;;;;;;5092291;28;20058;-84
2021/03/09 01:18:42;;;;;;;12.98;7.10;;;2.50;86.40;;;;;;5081672;28;20063;-83
2021/03/09 01:21:08;;;;;;;14.57;7.82;;;2.50;86.00;;;;;;5071577;28;20243;-83
2021/03/09 01:23:35;;;;;;;19.88;9.65;;;2.50;86.60;;;;;;5087283;28;20494;-84
2021/03/09 01:26:02;;;;;;;12.70;7.10;;;2.40;87.80;;;;;;5072650;28;20442;-83
2021/03/09 01:28:28;;;;;;;12.55;7.30;;;2.40;88.20;;;;;;5079027;28;20135;-81
2021/03/09 01:30:56;;;;;;;11.43;6.70;;;2.40;87.50;;;;;;5078910;28;20141;-81
2021/03/09 01:33:23;;;;;;;13.85;7.80;;;2.40;87.40;;;;;;5070761;28;20059;-84
2021/03/09 01:35:50;;;;;;;10.63;6.55;;;2.30;88.40;;;;;;5069913;28;20494;-82
2021/03/09 01:38:16;;;;;;;11.60;6.40;;;2.40;88.90;;;;;;5077151;28;20135;-83
2021/03/09 01:40:43;;;;;;;11.75;7.07;;;2.30;89.30;;;;;;5091619;28;20438;-83
2021/03/09 01:43:10;;;;;;;12.98;7.00;;;2.30;89.20;;;;;;5073618;28;20132;-82
2021/03/09 01:45:37;;;;;;;12.05;6.78;;;2.40;89.40;;;;;;5091849;28;20058;-83
2021/03/09 01:48:07;;;;;;;11.52;6.97;;;2.40;89.10;;;;;;5087286;28;20550;-85
2021/03/09 01:50:36;;;;;;;13.57;6.97;;;2.40;88.60;;;;;;5070704;28;20139;-83
2021/03/09 01:53:06;;;;;;;14.75;7.38;;;2.40;88.70;;;;;;5070887;28;20444;-83
2021/03/09 01:55:33;;;;;;;12.15;7.47;;;2.40;88.70;;;;;;5071812;28;20410;-83
2021/03/09 01:58:01;;;;;;;13.40;7.78;;;2.40;87.80;;;;;;5089446;28;20181;-81
2021/03/09 02:00:28;;;;;;;10.88;6.40;;;2.30;87.90;;;;;;5090831;28;20490;-84
2021/03/09 02:02:55;;;;;;;13.75;7.35;;;2.30;88.50;;;;;;5089619;28;20163;-85
2021/03/09 02:05:22;;;;;;;11.63;7.28;;;2.30;89.00;;;;;;5106983;28;20131;-83
2021/03/09 02:07:49;;;;;;;11.18;7.18;;;2.30;89.40;;;;;;5058709;28;20052;-81
2021/03/09 02:10:17;;;;;;;11.95;6.68;;;2.30;89.50;;;;;;5073201;28;20138;-82
2021/03/09 02:13:08;;;;;;;13.27;7.10;;;2.30;89.00;;;;;;5091428;28;20052;-82
2021/03/09 02:15:39;;;;;;;11.57;7.07;;;2.30;89.30;;;;;;5091376;28;20119;-82
2021/03/09 02:18:15;;;;;;;11.30;6.93;;;2.30;89.40;;;;;;5086833;28;20132;-81
2021/03/09 02:21:23;;;;;;;11.75;7.47;;;2.30;89.40;;;;;;5070414;28;20426;-81
2021/03/09 02:24:27;;;;;;;12.40;7.15;;;2.30;89.60;;;;;;5071505;28;20044;-81
2021/03/09 02:27:37;;;;;;;12.32;6.28;;;2.30;88.90;;;;;;5069931;28;20044;-83
2021/03/09 02:30:14;;;;;;;11.55;6.28;;;2.20;89.50;;;;;;5088106;28;20152;-82
2021/03/09 02:32:45;;;;;;;12.63;7.47;;;2.20;89.60;;;;;;5091163;28;20048;-83
2021/03/09 02:35:16;;;;;;;11.70;7.18;;;2.20;89.30;;;;;;5091129;28;20139;-83
2021/03/09 02:37:44;;;;;;;11.52;6.97;;;2.20;87.80;;;;;;5094192;28;20074;-83
2021/03/09 02:40:15;;;;;;;15.02;6.68;;;2.20;88.10;;;;;;5090411;28;20139;-83
2021/03/09 02:42:50;;;;;;;12.25;7.38;;;2.10;88.70;;;;;;5093214;28;20188;-83
2021/03/09 02:45:19;;;;;;;;;;;2.10;89.10;;;;;;5095837;28;20059;-83
2021/03/09 02:47:49;;;;;;;12.85;6.93;;;2.00;88.80;;;;;;5077508;28;20375;-84
2021/03/09 02:50:20;;;;;;;11.95;7.35;;;1.90;89.50;;;;;;5092923;28;20044;-81
2021/03/09 02:52:52;;;;;;;13.68;7.22;;;1.90;90.10;;;;;;5093731;28;20134;-80
2021/03/09 02:55:21;;;;;;;13.82;7.05;;;1.80;90.40;;;;;;5110235;28;20123;-82
2021/03/09 02:57:50;;;;;;;11.85;6.47;;;1.90;90.60;;;;;;5090394;28;20495;-81
2021/03/09 03:00:21;;;;;;;11.88;7.20;;;1.90;90.70;;;;;;5073915;28;20060;-83
2021/03/09 03:02:48;;;;;;;11.77;7.15;;;1.90;90.80;;;;;;5089272;28;20122;-82
2021/03/09 03:05:15;;;;;;;13.45;7.90;;;1.90;90.70;;;;;;5106293;28;20131;-82
2021/03/09 03:07:42;;;;;;;12.27;7.22;;;1.90;90.40;;;;;;5077090;28;20098;-82
2021/03/09 03:10:14;;;;;;;12.60;7.57;;;2.00;90.40;;;;;;5097630;28;20387;-82
2021/03/09 03:12:43;;;;;;;13.40;7.28;;;1.90;90.40;;;;;;5077441;28;20127;-82
2021/03/09 03:15:13;;;;;;;13.60;8.02;;;1.90;90.20;;;;;;5077247;28;20139;-82
2021/03/09 03:17:43;;;;;;;13.50;7.50;;;1.80;90.20;;;;;;5077592;28;20128;-83
2021/03/09 03:20:15;;;;;;;13.32;7.50;;;1.80;90.50;;;;;;5076893;28;20143;-82
2021/03/09 03:22:43;;;;;;;13.45;7.70;;;1.70;90.60;;;;;;5077727;28;20048;-82
2021/03/09 03:25:13;;;;;;;12.90;7.38;;;1.70;90.60;;;;;;5097196;28;20156;-82
2021/03/09 03:27:42;;;;;;;13.05;7.40;;;1.70;90.60;;;;;;5097111;28;20082;-83
2021/03/09 03:30:13;;;;;;;12.70;7.40;;;1.70;90.30;;;;;;5096801;28;20534;-82
2021/03/09 03:32:41;;;;;;;12.30;7.43;;;1.60;90.40;;;;;;5077419;28;20132;-83
2021/03/09 03:35:12;;;;;;;12.75;7.30;;;1.60;90.30;;;;;;5076461;28;20124;-82
2021/03/09 03:37:40;;;;;;;13.05;7.53;;;1.40;90.70;;;;;;5110269;28;20040;-82
2021/03/09 03:40:10;;;;;;;12.75;6.90;;;1.40;90.80;;;;;;5096264;28;20146;-83
2021/03/09 03:42:40;;;;;;;12.32;7.07;;;1.40;91.80;;;;;;5077513;28;20506;-83
2021/03/09 03:45:09;;;;;;;11.00;7.32;;;1.40;91.70;;;;;;5075926;28;20147;-81
2021/03/09 03:47:36;;;;;;;11.90;7.05;;;1.40;91.90;;;;;;5074184;28;20052;-83
2021/03/09 03:50:06;;;;;;;13.60;7.72;;;1.30;92.50;;;;;;5076177;28;20139;-83
2021/03/09 03:52:42;;;;;;;12.50;7.28;;;1.40;92.30;;;;;;5093412;28;20489;-84
2021/03/09 03:55:22;;;;;;;12.00;7.28;;;1.40;92.30;;;;;;5096143;28;20131;-82
2021/03/09 03:57:50;;;;;;;13.80;7.50;;;1.40;92.40;;;;;;5095418;28;20512;-82
2021/03/09 04:00:20;;;;;;;11.48;7.10;;;1.40;92.30;;;;;;5095757;28;20060;-81
2021/03/09 04:02:50;;;;;;;11.57;7.43;;;1.40;92.30;;;;;;5093845;28;20135;-82
2021/03/09 04:05:21;;;;;;;12.45;7.38;;;1.40;92.20;;;;;;5094604;28;20066;-81
2021/03/09 04:07:50;;;;;;;12.27;7.05;;;1.50;92.00;;;;;;5093959;28;20108;-83
2021/03/09 04:10:17;;;;;;;12.38;7.40;;;1.50;91.80;;;;;;5093820;28;20056;-84
2021/03/09 04:12:45;;;;;;;12.40;7.95;;;1.50;91.70;;;;;;5093218;28;20134;-83
2021/03/09 04:15:14;;;;;;;14.55;7.43;;;1.50;91.60;;;;;;5078663;28;20059;-85
2021/03/09 04:17:42;;;;;;;11.02;7.03;;;1.50;91.50;;;;;;5074151;28;20051;-84
2021/03/09 04:20:11;;;;;;;11.55;6.78;;;1.40;91.60;;;;;;5089388;28;20056;-84
2021/03/09 04:22:38;;;;;;;13.80;7.90;;;1.40;91.60;;;;;;5090892;28;20142;-84
2021/03/09 04:25:07;;;;;;;10.27;6.38;;;1.40;91.70;;;;;;5093277;28;20134;-84
2021/03/09 04:27:34;;;;;;;13.35;7.65;;;1.30;91.60;;;;;;5086301;28;20060;-84
2021/03/09 04:30:04;;;;;;;13.80;7.85;;;1.40;91.80;;;;;;5071808;28;20060;-80
2021/03/09 04:32:31;;;;;;;11.60;7.43;;;1.30;92.00;;;;;;5073676;28;20102;-82
2021/03/09 04:34:58;;;;;;;13.45;7.95;;;1.30;91.80;;;;;;5060140;28;20104;-83
2021/03/09 04:37:25;;;;;;;15.60;7.55;;;1.30;91.50;;;;;;5062706;28;20048;-83
2021/03/09 04:39:53;;;;;;;13.70;7.47;;;1.10;91.60;;;;;;5088454;28;20075;-82
2021/03/09 04:42:20;;;;;;;11.82;7.28;;;1.20;92.00;;;;;;5088525;28;20072;-82
2021/03/09 04:44:46;;;;;;;13.15;7.80;;;1.20;92.20;;;;;;5081353;28;20123;-81
2021/03/09 04:47:13;;;;;;;11.48;7.38;;;1.20;92.30;;;;;;5049870;28;20509;-81
2021/03/09 04:49:40;;;;;;;13.60;7.78;;;1.20;91.90;;;;;;5079920;28;20090;-80
2021/03/09 04:52:07;;;;;;;12.70;7.07;;;1.20;91.90;;;;;;5097643;28;20044;-82
2021/03/09 04:54:35;;;;;;;12.98;7.05;;;1.20;91.90;;;;;;5063331;28;20134;-82
2021/03/09 04:57:03;;;;;;;12.57;7.72;;;1.10;91.60;;;;;;5080928;28;20080;-83
2021/03/09 04:59:30;;;;;;;15.15;7.97;;;1.10;91.70;;;;;;5080671;28;20067;-82
2021/03/09 05:01:56;;;;;;;11.45;6.95;;;1.00;91.70;;;;;;5090124;28;20150;-79
2021/03/09 05:04:23;;;;;;;14.80;7.93;;;1.00;91.70;;;;;;5102169;28;20083;-82
2021/03/09 05:06:49;;;;;;;13.07;6.97;;;0.90;91.80;;;;;;5102139;28;20112;-81
2021/03/09 05:09:16;;;;;;;12.15;7.05;;;0.90;92.10;;;;;;5102081;28;20488;-82
2021/03/09 05:11:43;;;;;;;15.40;6.95;;;0.90;92.40;;;;;;5090497;28;20524;-81
2021/03/09 05:14:11;;;;;;;13.38;7.30;;;0.90;92.50;;;;;;5077557;28;20174;-82
2021/03/09 05:16:37;;;;;;;11.13;6.88;;;0.90;92.20;;;;;;5098006;28;20079;-82
2021/03/09 05:19:04;;;;;;;13.30;7.70;;;0.90;92.10;;;;;;5096042;28;20139;-82
2021/03/09 05:21:31;;;;;;;13.23;7.35;;;0.80;92.10;;;;;;5086035;28;20116;-90
2021/03/09 05:23:58;;;;;;;12.30;7.03;;;0.70;92.00;;;;;;5083937;28;20076;-90
2021/03/09 05:26:25;;;;;;;12.67;7.03;;;0.70;92.20;;;;;;5082177;28;20115;-79
2021/03/09 05:28:52;;;;;;;12.77;7.17;;;0.60;92.50;;;;;;5099977;28;20047;-81
2021/03/09 05:31:19;;;;;;;13.00;7.43;;;0.60;93.00;;;;;;5079604;28;20558;-83
2021/03/09 05:33:46;;;;;;;11.87;6.97;;;0.60;92.80;;;;;;5075326;28;20067;-84
2021/03/09 05:36:12;;;;;;;14.02;7.38;;;0.60;92.90;;;;;;5092745;28;20052;-84
2021/03/09 05:38:39;;;;;;;12.23;7.10;;;0.70;93.20;;;;;;5092926;28;20142;-84
2021/03/09 05:41:06;;;;;;;11.73;7.40;;;0.60;93.40;;;;;;5092719;28;20130;-85
2021/03/09 05:43:33;;;;;;;13.23;7.88;;;0.70;93.30;;;;;;5074866;28;20581;-85
2021/03/09 05:46:00;;;;;;;14.77;8.07;;;0.70;93.30;;;;;;5074737;28;20347;-85
2021/03/09 05:48:28;;;;;;;13.18;7.53;;;0.70;93.60;;;;;;5094518;28;20143;-85
2021/03/09 05:50:55;;;;;;;14.23;7.67;;;0.70;93.70;;;;;;5078592;28;20068;-84
2021/03/09 05:53:22;;;;;;;12.48;7.60;;;0.70;93.70;;;;;;5074653;28;20131;-85
2021/03/09 05:55:49;;;;;;;12.27;7.15;;;0.70;93.30;;;;;;5075342;28;20146;-85
2021/03/09 05:58:17;;;;;;;14.50;7.60;;;0.70;93.30;;;;;;5092835;28;20071;-85
2021/03/09 06:00:44;;;;;;;11.32;6.80;;;0.80;93.20;;;;;;5104066;28;20194;-84
2021/03/09 06:03:10;;;;;;;13.32;7.53;;;0.70;93.10;;;;;;5071941;28;20045;-85
2021/03/09 06:05:38;;;;;;;11.80;7.18;;;0.70;93.30;;;;;;5072008;28;20557;-85
2021/03/09 06:08:06;;;;;;;13.10;7.75;;;0.90;93.60;;;;;;5072726;28;20068;-85
2021/03/09 06:10:33;;;;;;;13.10;7.60;;;0.80;93.50;;;;;;5072093;28;20139;-84
2021/03/09 06:13:00;;;;;;;13.60;7.70;;;0.80;92.60;;;;;;5071455;28;20060;-85
2021/03/09 06:15:26;;;;;;;12.15;7.43;;;0.80;92.70;;;;;;5072242;28;20052;-85
2021/03/09 06:17:56;;;;;;;12.30;7.47;;;0.80;92.80;;;;;;5073098;28;20052;-85
2021/03/09 06:20:27;;;;;;;13.57;7.75;;;0.70;93.00;;;;;;5076073;28;20209;-85
2021/03/09 06:22:58;;;;;;;12.35;6.88;;;0.80;93.10;;;;;;5082777;28;20080;-85
2021/03/09 06:25:27;;;;;;;13.98;7.80;;;0.80;93.10;;;;;;5080989;28;20068;-85
2021/03/09 06:28:01;;;;;;;12.50;7.75;;;0.80;92.80;;;;;;5082855;28;20045;-85
2021/03/09 06:30:33;;;;;;;11.33;7.13;;;0.80;92.80;;;;;;5081690;28;20561;-84
2021/03/09 06:33:01;;;;;;;13.03;7.30;;;0.80;93.20;;;;;;5080286;28;20076;-85
2021/03/09 06:35:34;;;;;;;13.40;7.60;;;0.80;93.30;;;;;;5081508;28;20071;-85
2021/03/09 06:38:22;;;;;;;14.20;7.63;;;0.80;93.60;;;;;;5081403;28;20478;-85
2021/03/09 06:41:12;;;;;;;15.05;8.50;;;0.90;94.00;;;;;;5080396;28;20072;-84
2021/03/09 06:43:41;;;;;;;14.70;8.20;;;0.90;94.00;;;;;;5096913;28;20045;-86
2021/03/09 06:46:14;;;;;;;15.57;8.60;;;1.00;93.90;;;;;;5081268;28;20080;-84
2021/03/09 06:48:42;;;;;;;13.43;8.02;;;1.10;94.10;;;;;;5081506;28;20079;-85
2021/03/09 06:51:26;;;;;;;12.55;8.02;;;1.10;94.00;;;;;;5081557;28;20171;-84
2021/03/09 06:54:04;;;;;;;13.27;7.65;;;1.20;93.90;;;;;;5074993;28;20108;-85
2021/03/09 06:56:32;;;;;;;14.60;8.05;;;1.30;93.80;;;;;;5071433;28;20123;-84
2021/03/09 06:59:21;;;;;;;15.23;8.50;;;1.40;93.90;;;;;;5070119;28;20521;-84
2021/03/09 07:02:06;;;;;;;16.55;8.88;;;1.50;93.60;;;;;;5072775;28;20210;-84
2021/03/09 07:04:33;;;;;;;14.35;8.50;;;1.50;93.60;;;;;;5076234;28;20045;-85
2021/03/09 07:07:00;;;;;;;14.23;8.52;;;1.60;93.60;;;;;;5076810;28;20104;-84
2021/03/09 07:09:28;;;;;;;15.45;8.82;;;1.70;93.70;;;;;;5075968;28;20083;-84
2021/03/09 07:11:56;;;;;;;16.33;9.93;;;1.70;93.50;;;;;;5077539;28;20526;-84
2021/03/09 07:14:25;;;;;;;17.10;8.82;;;1.80;92.90;;;;;;5076859;28;20052;-84
2021/03/09 07:16:53;;;;;;;15.20;8.63;;;1.80;92.90;;;;;;5076954;28;20063;-84
2021/03/09 07:19:26;;;;;;;16.48;9.63;;;1.80;93.20;;;;;;5076889;28;20049;-84
2021/03/09 07:21:53;;;;;;;15.75;9.13;;;1.70;93.00;;;;;;5075628;28;20080;-84
2021/03/09 07:24:23;;;;;;;16.55;8.90;;;1.70;92.80;;;;;;5078915;28;20298;-83
2021/03/09 07:26:56;;;;;;;16.52;9.90;;;1.70;93.10;;;;;;5077463;28;20108;-84
2021/03/09 07:29:24;;;;;;;15.18;8.95;;;1.80;93.20;;;;;;5078299;28;20239;-84
2021/03/09 07:31:56;;;;;;;13.82;9.07;;;1.80;93.20;;;;;;5092634;28;20049;-84
2021/03/09 07:34:24;;;;;;;16.95;9.68;;;1.80;93.50;;;;;;5075643;28;20131;-84
2021/03/09 07:36:52;;;;;;;16.45;9.88;;;1.80;93.40;;;;;;5075694;28;20562;-84
2021/03/09 07:39:19;;;;;;;14.57;8.73;;;1.80;93.30;;;;;;5075550;28;20048;-84
2021/03/09 07:41:47;;;;;;;15.25;8.70;;;1.80;93.40;;;;;;5074923;28;20567;-84
2021/03/09 07:44:16;;;;;;;14.63;8.85;;;1.80;93.50;;;;;;5074222;28;20136;-84
2021/03/09 07:46:43;;;;;;;17.67;9.75;;;1.90;93.60;;;;;;5075593;28;20499;-84
2021/03/09 07:49:11;;;;;;;19.02;10.38;;;2.00;93.60;;;;;;5074881;28;20092;-84
2021/03/09 07:52:25;;;;;;;16.15;9.90;;;2.10;93.30;;;;;;5057915;28;20054;-84
2021/03/09 07:55:20;;;;;;;18.17;10.13;;;2.20;93.10;;;;;;5053401;28;20052;-82
2021/03/09 07:57:48;;;;;;;15.13;9.38;;;2.20;92.80;;;;;;5074421;28;20137;-84
2021/03/09 08:00:18;;;;;;;16.20;9.52;;;2.30;93.30;;;;;;5089921;28;20052;-84
2021/03/09 08:02:52;;;;;;;16.95;10.02;;;2.30;93.30;;;;;;5076436;28;20052;-84
2021/03/09 08:05:22;;;;;;;15.50;9.82;;;2.40;93.30;;;;;;5094482;28;20046;-83
2021/03/09 08:07:55;;;;;;;18.70;9.70;;;2.60;93.20;;;;;;5096437;28;20111;-84
2021/03/09 08:10:45;;;;;;;17.27;10.20;;;2.60;93.00;;;;;;5079667;28;20059;-84
2021/03/09 08:13:29;;;;;;;16.30;9.75;;;2.80;93.00;;;;;;5093536;28;20341;-81
2021/03/09 08:16:33;;;;;;;17.20;10.63;;;2.80;92.80;;;;;;5093733;28;20083;-81
2021/03/09 08:19:06;;;;;;;15.95;9.50;;;2.90;92.70;;;;;;5093135;28;20107;-82
2021/03/09 08:22:04;;;;;;;18.15;10.18;;;3.00;92.60;;;;;;5075358;28;20127;-81
2021/03/09 08:24:57;;;;;;;16.75;10.10;;;3.10;92.50;;;;;;5093414;28;20134;-83
2021/03/09 08:27:38;;;;;;;17.15;10.63;;;3.20;92.20;;;;;;5105333;28;20083;-83
2021/03/09 08:30:31;;;;;;;15.77;10.23;;;3.20;92.30;;;;;;5075651;28;20141;-83
2021/03/09 08:33:32;;;;;;;17.58;9.88;;;3.30;92.40;;;;;;5100173;28;20044;-83
2021/03/09 08:36:00;;;;;;;15.90;10.25;;;3.30;92.10;;;;;;5076529;28;20117;-82
2021/03/09 08:38:27;;;;;;;17.90;10.23;;;3.40;92.10;;;;;;5092810;28;20197;-81
2021/03/09 08:41:12;;;;;;;16.33;10.75;;;3.50;91.90;;;;;;5092244;28;20109;-81
2021/03/09 08:43:43;;;;;;;16.15;9.40;;;3.60;91.30;;;;;;5084477;28;20409;-83
2021/03/09 08:46:13;;;;;;;17.65;10.43;;;3.60;91.90;;;;;;5100576;28;20048;-81
2021/03/09 08:49:01;;;;;;;17.20;9.95;;;3.70;92.00;;;;;;5112129;28;20358;-81
2021/03/09 08:51:49;;;;;;;15.20;9.00;;;3.80;91.60;;;;;;5096246;28;20052;-82
2021/03/09 08:54:26;;;;;;;14.63;9.93;;;3.90;91.60;;;;;;5092142;28;20408;-83
2021/03/09 08:56:56;;;;;;;15.48;9.60;;;4.00;91.30;;;;;;5093309;28;20075;-84
2021/03/09 08:59:25;;;;;;;17.60;10.27;;;4.20;90.90;;;;;;5074426;28;20421;-84
2021/03/09 09:01:53;;;;;;;20.45;11.30;;;4.30;89.50;;;;;;5092532;28;20084;-83
2021/03/09 09:04:21;;;;;;;16.20;9.52;;;4.40;88.50;;;;;;5092204;28;20080;-83
2021/03/09 09:06:48;;;;;;;19.67;10.52;;;4.30;88.10;;;;;;5092568;28;20449;-83
2021/03/09 09:09:31;;;;;;;14.82;9.45;;;4.40;88.40;;;;;;5092511;28;20044;-83
2021/03/09 09:12:21;;;;;;;15.30;9.23;;;4.40;89.10;;;;;;5108055;28;20131;-83
2021/03/09 09:15:00;;;;;;;14.38;9.40;;;4.40;89.40;;;;;;5074656;28;20139;-83
2021/03/09 09:17:27;;;;;;;17.45;10.45;;;4.60;89.90;;;;;;5074725;28;20127;-84
2021/03/09 09:19:57;;;;;;;15.65;10.07;;;4.70;87.80;;;;;;5074402;28;20162;-84
2021/03/09 09:22:25;;;;;;;17.05;9.85;;;4.70;87.00;;;;;;5090929;28;20044;-84
2021/03/09 09:24:57;;;;;;;16.33;10.38;;;4.80;86.60;;;;;;5092446;28;20398;-83
2021/03/09 09:27:24;;;;;;;15.30;9.75;;;4.70;87.20;;;;;;5092306;28;20087;-84
2021/03/09 09:29:55;;;;;;;15.35;9.90;;;4.80;87.00;;;;;;5108240;28;20573;-83
2021/03/09 09:32:22;;;;;;;14.07;9.48;;;4.80;87.50;;;;;;5092283;28;20044;-84
2021/03/09 09:34:58;;;;;;;18.27;10.18;;;4.80;88.30;;;;;;5107572;28;20072;-84
2021/03/09 09:37:27;;;;;;;15.40;10.25;;;4.90;87.50;;;;;;5107811;28;20052;-84
2021/03/09 09:39:54;;;;;;;14.55;9.90;;;5.00;88.30;;;;;;5057469;28;20048;-84
2021/03/09 09:42:21;;;;;;;16.92;10.70;;;5.10;88.90;;;;;;5091988;28;20132;-84
2021/03/09 09:44:47;;;;;;;16.55;9.93;;;5.10;89.40;;;;;;5092126;28;20142;-84
2021/03/09 09:47:15;;;;;;;15.80;10.95;;;5.20;88.60;;;;;;5091907;28;20105;-84
2021/03/09 09:49:45;;;;;;;17.70;10.98;;;5.40;87.80;;;;;;5091778;28;20040;-84
2021/03/09 09:52:15;;;;;;;15.95;9.82;;;5.40;87.30;;;;;;5091739;28;20044;-84
2021/03/09 09:54:52;;;;;;;15.43;9.65;;;5.50;88.00;;;;;;5107035;28;20078;-84
2021/03/09 09:57:20;;;;;;;17.00;10.60;;;5.60;88.10;;;;;;5091716;28;20040;-84
2021/03/09 09:59:47;;;;;;;15.55;9.80;;;5.70;87.60;;;;;;5091709;28;20497;-84
2021/03/09 10:02:21;;;;;;;19.00;11.85;;;5.70;87.80;;;;;;5107749;28;20044;-84
2021/03/09 10:04:48;;;;;;;15.13;9.32;;;5.90;85.80;;;;;;5091788;28;20563;-84
2021/03/09 10:07:18;;;;;;;16.55;10.57;;;5.80;86.60;;;;;;5091340;28;20051;-85
2021/03/09 10:10:07;;;;;;;15.80;10.10;;;6.00;86.40;;;;;;5091954;28;20048;-84
2021/03/09 10:12:36;;;;;;;15.80;10.68;;;6.10;86.80;;;;;;5091616;28;20359;-84
2021/03/09 10:15:07;;;;;;;17.02;10.45;;;6.20;86.70;;;;;;5091544;28;20288;-84
2021/03/09 10:17:34;;;;;;;15.60;9.93;;;6.20;85.90;;;;;;5091359;28;20059;-84
2021/03/09 10:20:01;;;;;;;16.38;10.40;;;6.30;86.20;;;;;;5091865;28;20064;-84
2021/03/09 10:22:28;;;;;;;18.88;10.80;;;6.50;85.70;;;;;;5091881;28;20091;-85
2021/03/09 10:25:09;;;;;;;14.52;9.75;;;6.50;84.10;;;;;;5091577;28;20044;-84
2021/03/09 10:27:36;;;;;;;13.85;9.35;;;6.60;84.20;;;;;;5091653;28;20474;-84
2021/03/09 10:30:05;;;;;;;16.23;9.27;;;6.60;84.10;;;;;;5073790;28;20136;-84
2021/03/09 10:32:32;;;;;;;15.20;9.57;;;6.70;82.90;;;;;;5090972;28;20043;-84
2021/03/09 10:35:07;;;;;;;13.38;8.90;;;6.70;82.60;;;;;;5091858;28;20135;-84
2021/03/09 10:37:35;;;;;;;;;;;6.80;82.60;;;;;;5092092;28;20079;-84
2021/03/09 10:40:05;;;;;;;13.63;9.70;;;6.90;82.70;;;;;;5091169;28;20273;-83
2021/03/09 10:42:36;;;;;;;13.50;8.27;;;7.00;81.10;;;;;;5090585;28;20075;-84
2021/03/09 10:45:20;;;;;;;15.25;10.23;;;7.10;81.30;;;;;;5091641;28;20059;-84
2021/03/09 10:47:52;;;;;;;13.70;9.45;;;7.20;77.60;;;;;;5090602;28;20569;-83
2021/03/09 10:50:23;;;;;;;14.65;9.60;;;7.20;79.00;;;;;;5091348;28;20109;-84
2021/03/09 10:52:54;;;;;;;13.50;9.57;;;7.20;79.90;;;;;;5091868;28;20048;-84
2021/03/09 10:55:21;;;;;;;18.45;11.57;;;7.20;79.00;;;;;;5090131;28;20048;-84
2021/03/09 10:57:48;;;;;;;16.30;11.07;;;7.30;79.90;;;;;;5093338;28;20123;-83
2021/03/09 11:00:18;;;;;;;15.40;9.88;;;7.40;79.50;;;;;;5094843;28;20052;-83
2021/03/09 11:02:45;;;;;;;14.77;9.27;;;7.50;79.10;;;;;;5094844;28;20072;-83
2021/03/09 11:05:13;;;;;;;13.85;8.45;;;7.40;79.00;;;;;;5076622;28;20058;-83
2021/03/09 11:07:40;;;;;;;13.68;8.60;;;7.60;76.90;;;;;;5094858;28;20108;-83
2021/03/09 11:10:11;;;;;;;11.80;7.55;;;7.70;76.40;;;;;;5095040;28;20051;-83
2021/03/09 11:12:38;;;;;;;14.43;8.10;;;7.80;74.20;;;;;;5077122;28;20498;-84
2021/03/09 11:15:07;;;;;;;10.23;6.53;;;7.80;71.20;;;;;;5093833;28;20067;-83
2021/03/09 11:17:34;;;;;;;7.85;5.20;;;7.80;71.50;;;;;;5095043;28;20048;-84
2021/03/09 11:20:00;;;;;;;10.27;6.65;;;7.90;68.70;;;;;;5094767;28;20464;-83
2021/03/09 11:22:27;;;;;;;11.25;5.95;;;8.00;67.40;;;;;;5094804;28;20467;-84
2021/03/09 11:24:54;;;;;;;11.18;6.65;;;8.00;67.10;;;;;;5076634;28;20067;-84
2021/03/09 11:27:22;;;;;;;10.35;7.13;;;8.00;67.80;;;;;;5094767;28;20125;-84
2021/03/09 11:29:48;;;;;;;10.23;6.93;;;8.10;68.30;;;;;;5094752;28;20066;-84
2021/03/09 11:32:15;;;;;;;9.93;6.72;;;8.30;67.70;;;;;;5094402;28;20127;-83
2021/03/09 11:34:42;;;;;;;9.75;6.97;;;8.30;67.60;;;;;;5076438;28;20134;-83
2021/03/09 11:37:09;;;;;;;10.57;6.93;;;8.30;68.60;;;;;;5076429;28;20505;-83
2021/03/09 11:39:35;;;;;;;11.48;7.13;;;8.50;67.50;;;;;;5093723;28;20138;-83
2021/03/09 11:42:02;;;;;;;16.25;8.00;;;8.60;66.30;;;;;;5076518;28;20135;-83
2021/03/09 11:44:30;;;;;;;12.52;8.15;;;8.70;65.60;;;;;;5094092;28;20131;-83
2021/03/09 11:46:57;;;;;;;11.05;7.72;;;8.80;65.30;;;;;;5093852;28;20058;-82
2021/03/09 11:49:23;;;;;;;12.50;7.40;;;8.90;64.50;;;;;;5094486;28;20084;-83
2021/03/09 11:51:50;;;;;;;9.32;6.50;;;8.90;64.50;;;;;;5094298;28;20127;-83
2021/03/09 11:54:17;;;;;;;11.15;7.82;;;8.90;64.20;;;;;;5093381;28;20139;-85
2021/03/09 11:56:44;;;;;;;11.68;7.90;;;9.00;64.40;;;;;;5094037;28;20079;-83
2021/03/09 11:59:10;;;;;;;22.98;13.52;;;9.10;64.30;;;;;;5092940;28;20090;-84
2021/03/09 12:01:38;;;;;;;11.77;7.72;;;9.20;63.20;;;;;;5093659;28;20553;-82
2021/03/09 12:04:05;;;;;;;11.35;7.75;;;9.20;63.70;;;;;;5093009;28;20048;-83
2021/03/09 12:06:32;;;;;;;10.90;7.45;;;9.30;61.60;;;;;;5075580;28;20127;-82
2021/03/09 12:08:59;;;;;;;9.85;6.60;;;9.40;59.50;;;;;;5092088;28;20127;-83
2021/03/09 12:11:25;;;;;;;10.05;7.07;;;9.50;59.70;;;;;;5092723;28;20462;-83
2021/03/09 12:13:53;;;;;;;10.63;7.40;;;9.50;58.40;;;;;;5058264;28;20044;-82
2021/03/09 12:16:20;;;;;;;10.13;6.70;;;9.60;58.70;;;;;;5092894;28;20083;-82
2021/03/09 12:18:47;;;;;;;10.20;7.13;;;9.70;58.70;;;;;;5074463;28;20044;-83
2021/03/09 12:21:14;;;;;;;9.85;6.40;;;9.80;58.60;;;;;;5093188;28;20063;-84
2021/03/09 12:23:41;;;;;;;11.32;7.25;;;9.70;58.50;;;;;;5092770;28;20125;-84
2021/03/09 12:26:08;;;;;;;9.32;6.70;;;9.80;58.70;;;;;;5059069;28;20196;-83
2021/03/09 12:28:34;;;;;;;11.02;7.20;;;9.90;58.60;;;;;;5092901;28;20088;-83
2021/03/09 12:31:02;;;;;;;9.63;6.43;;;10.10;56.10;;;;;;5092350;28;20486;-83
2021/03/09 12:33:28;;;;;;;10.40;7.05;;;10.10;56.00;;;;;;5092508;28;20101;-84
2021/03/09 12:35:56;;;;;;;11.18;7.13;;;10.20;56.00;;;;;;5092484;28;20462;-83
2021/03/09 12:38:23;;;;;;;9.55;6.38;;;10.40;55.10;;;;;;5092038;28;20083;-83
2021/03/09 12:40:50;;;;;;;9.52;6.85;;;10.40;55.30;;;;;;5073711;28;20189;-83
2021/03/09 12:43:16;;;;;;;10.07;6.90;;;10.50;55.00;;;;;;5074295;28;20048;-84
2021/03/09 12:45:43;;;;;;;9.55;6.93;;;10.60;55.10;;;;;;5092498;28;20551;-83
2021/03/09 12:48:10;;;;;;;9.63;6.63;;;10.80;53.70;;;;;;5074231;28;20040;-84
2021/03/09 12:50:37;;;;;;;10.73;7.25;;;11.00;53.10;;;;;;5091726;28;20048;-83
2021/03/09 12:53:05;;;;;;;10.25;7.18;;;11.20;51.20;;;;;;5092879;28;20131;-83
2021/03/09 12:55:31;;;;;;;10.43;6.97;;;11.10;50.50;;;;;;5073978;28;20048;-83
2021/03/09 12:57:58;;;;;;;10.65;7.13;;;11.30;51.30;;;;;;5091881;28;20079;-83
2021/03/09 13:00:25;;;;;;;10.25;6.60;;;11.40;50.40;;;;;;5091809;28;20471;-82